Jacksonville, FL (32208)

5:00 PM EDT on April 18, 2015 (GMT -0400)
Trout River | | Change Station
CLOSE
Current Station
Personal Weather Station
Location: Jacksonville, FL
Elevation: 0 ft
Nearby Weather Stations

Elev 0 ft 30.39 °N, 81.66 °W | Updated 10 seconds ago

Mostly Cloudy
Mostly Cloudy
85.7 °F
Feels Like 91 °F
N
1.0
Wind Variable Wind from WSW
Gusts 2.0 mph

Today
High -- | Low -- °F
--% Chance of Precip.
Yesterday
High -- | Low -- °F
Precip. -- in
6:56 AM 7:56 PM
New Moon, 0% visible
Pressure 29.88 in
Visibility 10.0 miles
Clouds Few 4600 ft
Scattered Clouds 7500 ft
Mostly Cloudy 15000 ft
Mostly Cloudy 25000 ft
Heat Index 91 °F
Dew Point 70 °F
Humidity 60%
Rainfall 0.00 in
Snow Depth Not available.
UV 0.0 out of 12
Pollen 8.30 out of 12
Air Quality Not available.
Flu Activity Local Activity
METAR KJAX 182056Z 24005KT 10SM FEW046 SCT075 BKN150 BKN250 29/19 A2987 RMK AO2 SLP116 T02940194 56023

More Conditions Fewer Conditions

Pressure 29.88 in
Visibility 10.0 miles
Clouds Few 4600 ft
Scattered Clouds 7500 ft
Mostly Cloudy 15000 ft
Mostly Cloudy 25000 ft
Heat Index 91 °F
Dew Point 70 °F
Humidity 60%
Rainfall 0.00 in
Snow Depth Not available.
UV 0.0 out of 12
Pollen 8.30 out of 12
Air Quality Not available.
Flu Activity Local Activity
METAR KJAX 182056Z 24005KT 10SM FEW046 SCT075 BKN150 BKN250 29/19 A2987 RMK AO2 SLP116 T02940194 56023

More Conditions Fewer Conditions

10-Day Weather Forecast

Almanac

Astronomy

Apr. 18, 2015 Rise Set
Actual Time
Civil Twilight
Nautical Twilight
Astronomical Twilight
Moon
Length of Visible Light
Length of Day
Tomorrow will be .
, % of the Moon is Illuminated

Today's Extremes

State Highs State Lows

Community

WunderPhotos

Upload Photos

1,814,525 photos uploaded!

WunderBlogs® & News

Nearby

Air Quality

  Air Quality AQ Index Pollutant
Not available.

Snow Depth

Station Depth Elevation

Earthquake Activity

City Distance Mag. Time & Date
Minimum magnitude displayed is 2.5.

Coastal Water Temperatures

Place Temperature

Stations

Nearby Weather Stations

Station Location Temp. Windchill Dew Point Humidity Wind Precip. Elev Updated Type